createdAt,value
2019-03-18T00:01:29.178Z,68.07
2019-03-18T00:04:03.894Z,67.95
2019-03-18T00:06:42.653Z,68.08
2019-03-18T00:09:12.819Z,68.15
2019-03-18T00:11:42.984Z,68.05
2019-03-18T00:14:13.275Z,68.21
2019-03-18T00:16:46.169Z,68.24
2019-03-18T00:19:35.902Z,68.24
2019-03-18T00:22:06.606Z,68.40
2019-03-18T00:24:36.828Z,68.20
2019-03-18T00:27:09.755Z,68.17
2019-03-18T00:29:39.952Z,67.89
2019-03-18T00:32:10.278Z,67.76
2019-03-18T00:34:42.893Z,67.95
2019-03-18T00:37:13.232Z,67.51
2019-03-18T00:39:43.503Z,67.68
2019-03-18T00:42:13.870Z,67.76
2019-03-18T00:44:44.526Z,67.48
2019-03-18T00:47:18.511Z,67.59
2019-03-18T00:49:53.283Z,67.39
2019-03-18T00:52:30.690Z,67.71
2019-03-18T00:55:01.099Z,67.84
2019-03-18T00:57:35.321Z,68.29
2019-03-18T01:00:15.112Z,68.53
2019-03-18T01:02:53.482Z,68.68
2019-03-18T01:05:27.110Z,68.81
2019-03-18T01:08:03.638Z,68.54
2019-03-18T01:10:50.333Z,68.71
2019-03-18T01:13:32.223Z,68.82
2019-03-18T01:16:05.597Z,68.94
2019-03-18T01:18:39.344Z,68.75
2019-03-18T01:21:19.503Z,68.75
2019-03-18T01:23:55.376Z,68.34
2019-03-18T01:26:29.182Z,68.34
2019-03-18T01:28:59.492Z,68.28
2019-03-18T01:31:31.654Z,68.30
2019-03-18T01:34:02.039Z,68.33
2019-03-18T01:36:33.678Z,69.03
2019-03-18T01:39:06.307Z,68.40
2019-03-18T01:41:36.582Z,68.70
2019-03-18T01:44:06.718Z,68.57
2019-03-18T01:46:38.510Z,68.88
2019-03-18T01:49:08.796Z,68.79
2019-03-18T01:51:41.782Z,68.47
2019-03-18T01:54:16.416Z,68.45
2019-03-18T01:56:49.631Z,68.60
2019-03-18T01:59:20.904Z,68.92
2019-03-18T02:01:57.150Z,69.09
2019-03-18T02:04:35.328Z,69.53
2019-03-18T02:07:06.047Z,69.20
2019-03-18T02:09:36.195Z,69.07
2019-03-18T02:12:06.581Z,69.32
2019-03-18T02:14:36.863Z,69.10
2019-03-18T02:17:07.176Z,68.96
2019-03-18T02:19:41.143Z,69.28
2019-03-18T02:22:11.400Z,69.01
2019-03-18T02:24:41.667Z,69.02
2019-03-18T02:27:17.640Z,68.62
2019-03-18T02:29:47.819Z,68.62
2019-03-18T02:32:19.080Z,68.86
2019-03-18T02:34:55.020Z,68.97
2019-03-18T02:37:35.856Z,68.63
2019-03-18T02:40:12.980Z,68.45
2019-03-18T02:42:44.095Z,68.30
2019-03-18T02:45:24.342Z,68.42
2019-03-18T02:47:54.267Z,68.91
2019-03-18T02:50:24.511Z,69.45
2019-03-18T02:52:55.793Z,69.96
2019-03-18T02:55:26.027Z,69.97
2019-03-18T02:57:58.219Z,70.08
2019-03-18T03:00:28.598Z,69.92
2019-03-18T03:03:00.171Z,69.62
2019-03-18T03:05:31.660Z,69.58
2019-03-18T03:08:33.765Z,69.62
2019-03-18T03:11:09.792Z,70.24
2019-03-18T03:13:50.279Z,71.16
2019-03-18T03:16:27.002Z,71.13
2019-03-18T03:18:56.211Z,71.37
2019-03-18T03:21:26.354Z,71.12
2019-03-18T03:23:56.567Z,70.89
2019-03-18T03:26:30.094Z,70.65
2019-03-18T03:29:02.723Z,70.42
2019-03-18T03:31:34.508Z,71.08
2019-03-18T03:34:13.026Z,70.45
2019-03-18T03:36:41.926Z,70.28
2019-03-18T03:41:58.018Z,70.32
2019-03-18T03:44:34.981Z,70.89
2019-03-18T03:47:07.368Z,70.79
2019-03-18T03:49:39.072Z,71.10
2019-03-18T03:52:09.300Z,71.35
2019-03-18T03:54:39.492Z,71.42
2019-03-18T03:57:09.974Z,71.40
2019-03-18T03:59:43.624Z,71.85
2019-03-18T04:02:16.895Z,71.62
2019-03-18T04:05:05.516Z,71.28
2019-03-18T04:07:23.313Z,71.17
2019-03-18T04:09:53.466Z,71.15
2019-03-18T04:12:24.468Z,71.00
2019-03-18T04:14:54.499Z,71.07
2019-03-18T04:17:25.907Z,70.92
2019-03-18T04:19:56.597Z,71.38
2019-03-18T04:22:26.825Z,71.11
2019-03-18T04:24:57.309Z,71.14
2019-03-18T04:27:27.751Z,70.94
2019-03-18T04:29:57.893Z,70.93
2019-03-18T04:32:28.263Z,70.64
2019-03-18T04:35:01.947Z,70.50
2019-03-18T04:37:35.438Z,70.62
2019-03-18T04:40:05.760Z,70.50
2019-03-18T04:42:36.013Z,70.30
2019-03-18T04:45:06.696Z,70.39
2019-03-18T04:47:44.315Z,70.45
2019-03-18T04:50:14.948Z,70.53
2019-03-18T04:52:51.133Z,70.34
2019-03-18T04:55:27.236Z,70.29
2019-03-18T04:57:57.384Z,70.42
2019-03-18T05:00:28.735Z,70.93
2019-03-18T05:02:58.889Z,70.52
2019-03-18T05:05:29.245Z,70.74
2019-03-18T05:07:59.429Z,71.36
2019-03-18T05:10:31.861Z,71.64
2019-03-18T05:13:02.140Z,71.46
2019-03-18T05:15:32.489Z,71.94
2019-03-18T05:18:02.655Z,71.64
2019-03-18T05:20:32.856Z,71.72
2019-03-18T05:23:04.482Z,71.37
2019-03-18T05:25:34.932Z,71.47
2019-03-18T05:28:10.137Z,71.55
2019-03-18T05:30:40.418Z,71.59
2019-03-18T05:33:13.101Z,71.86
2019-03-18T05:35:48.728Z,72.02
2019-03-18T05:38:18.834Z,71.83
2019-03-18T05:40:51.060Z,72.03
2019-03-18T05:43:21.386Z,72.03
2019-03-18T05:45:54.634Z,71.99
2019-03-18T05:48:25.794Z,72.19
2019-03-18T05:50:57.561Z,72.25
2019-03-18T05:53:27.761Z,72.26
2019-03-18T05:55:58.026Z,72.86
2019-03-18T05:58:28.225Z,73.07
2019-03-18T06:00:58.542Z,73.22
2019-03-18T06:03:28.693Z,72.97
2019-03-18T06:05:58.911Z,73.40
2019-03-18T06:08:30.753Z,73.15
2019-03-18T06:11:02.052Z,73.12
2019-03-18T06:13:32.173Z,73.40
2019-03-18T06:16:04.446Z,73.57
2019-03-18T06:18:34.300Z,73.72
2019-03-18T06:21:04.503Z,73.55
2019-03-18T06:23:35.158Z,72.78
2019-03-18T06:26:05.574Z,72.14
2019-03-18T06:28:39.023Z,71.80
2019-03-18T06:31:09.225Z,71.34
2019-03-18T06:33:39.575Z,70.62
2019-03-18T06:36:12.153Z,70.47
2019-03-18T06:38:44.346Z,70.21
2019-03-18T06:41:14.190Z,70.40
2019-03-18T06:43:44.834Z,69.96
2019-03-18T06:46:15.356Z,69.83
2019-03-18T06:48:46.978Z,69.98
2019-03-18T06:51:17.192Z,69.58
2019-03-18T06:53:47.396Z,69.35
2019-03-18T06:56:17.621Z,69.05
2019-03-18T06:58:47.820Z,69.32
2019-03-18T07:01:17.997Z,69.25
2019-03-18T07:03:48.627Z,69.19
2019-03-18T07:06:18.877Z,69.24
2019-03-18T07:08:49.099Z,69.27
2019-03-18T07:11:19.589Z,69.23
2019-03-18T07:13:49.745Z,68.78
2019-03-18T07:16:21.693Z,68.61
2019-03-18T07:18:51.927Z,68.33
2019-03-18T07:21:22.195Z,68.23
2019-03-18T07:23:52.401Z,68.32
2019-03-18T07:26:22.576Z,68.00
2019-03-18T07:28:54.947Z,67.80
2019-03-18T07:31:25.248Z,67.90
2019-03-18T07:33:59.911Z,68.03
2019-03-18T07:36:30.255Z,67.56
2019-03-18T07:39:00.428Z,67.12
2019-03-18T07:41:31.225Z,66.78
2019-03-18T07:44:02.885Z,66.07
2019-03-18T07:46:33.085Z,66.32
2019-03-18T07:49:03.233Z,66.22
2019-03-18T07:51:33.429Z,66.08
2019-03-18T07:54:03.677Z,66.24
2019-03-18T07:56:33.813Z,65.97
2019-03-18T07:59:03.992Z,65.63
2019-03-18T08:01:34.192Z,65.62
2019-03-18T08:04:04.424Z,65.80
2019-03-18T08:06:34.617Z,65.12
2019-03-18T08:09:07.635Z,64.24
2019-03-18T08:11:37.993Z,64.56
2019-03-18T08:14:08.287Z,64.63
2019-03-18T08:16:38.405Z,64.63
2019-03-18T08:19:11.119Z,64.83
2019-03-18T08:21:41.974Z,65.07
2019-03-18T08:24:12.196Z,65.07
2019-03-18T08:26:42.385Z,64.27
2019-03-18T08:29:12.619Z,64.36
2019-03-18T08:31:43.882Z,65.28
2019-03-18T08:34:15.150Z,66.49
2019-03-18T08:36:45.485Z,67.03
2019-03-18T08:39:15.655Z,66.44
2019-03-18T08:41:45.929Z,67.79
2019-03-18T08:44:16.077Z,68.65
2019-03-18T08:46:46.255Z,69.69
2019-03-18T08:49:16.408Z,70.61
2019-03-18T08:51:48.920Z,70.27
2019-03-18T08:54:19.067Z,70.04
2019-03-18T08:56:49.540Z,68.46
2019-03-18T08:59:19.723Z,69.14
2019-03-18T09:01:49.913Z,68.24
2019-03-18T09:04:20.444Z,67.29
2019-03-18T09:06:50.656Z,66.19
2019-03-18T09:09:20.960Z,65.66
2019-03-18T09:11:51.135Z,64.38
2019-03-18T09:14:21.370Z,63.22
2019-03-18T09:16:51.578Z,62.09
2019-03-18T09:19:21.857Z,59.54
2019-03-18T09:21:57.580Z,59.07
2019-03-18T09:24:30.491Z,59.33
2019-03-18T09:27:02.518Z,59.82
2019-03-18T09:29:34.291Z,59.19
2019-03-18T09:32:04.517Z,59.40
2019-03-18T09:34:34.673Z,57.81
2019-03-18T09:37:04.836Z,57.35
2019-03-18T09:39:35.048Z,55.97
2019-03-18T09:42:05.274Z,56.11
2019-03-18T09:44:35.501Z,56.54
2019-03-18T09:47:05.751Z,55.25
2019-03-18T09:49:35.949Z,55.80
2019-03-18T09:52:06.112Z,54.10
2019-03-18T09:54:37.794Z,54.55
2019-03-18T09:57:11.892Z,54.44
2019-03-18T09:59:45.847Z,53.96
2019-03-18T10:02:15.968Z,53.92
2019-03-18T10:04:49.063Z,55.06
2019-03-18T10:07:19.252Z,56.45
2019-03-18T10:09:49.422Z,56.42
2019-03-18T10:12:19.596Z,56.83
2019-03-18T10:14:49.960Z,56.28
2019-03-18T10:17:23.213Z,56.04
2019-03-18T10:19:53.756Z,55.26
2019-03-18T10:22:26.805Z,54.98
2019-03-18T10:24:57.963Z,55.16
2019-03-18T10:27:28.098Z,55.53
2019-03-18T10:29:58.376Z,55.59
2019-03-18T10:32:29.779Z,55.21
2019-03-18T10:35:01.170Z,52.58
2019-03-18T10:37:31.319Z,52.48
2019-03-18T10:40:01.460Z,56.09
2019-03-18T10:42:31.709Z,59.82
2019-03-18T10:45:01.908Z,71.02
2019-03-18T10:47:32.132Z,78.27
2019-03-18T10:50:02.271Z,78.89
2019-03-18T10:52:32.598Z,79.35
2019-03-18T10:55:02.765Z,78.93
2019-03-18T10:57:33.103Z,79.56
2019-03-18T11:00:03.286Z,78.81
2019-03-18T11:02:33.830Z,79.21
2019-03-18T11:05:04.006Z,79.20
2019-03-18T11:07:34.176Z,77.24
2019-03-18T11:10:08.460Z,75.56
2019-03-18T11:12:38.692Z,75.73
2019-03-18T11:15:10.627Z,76.29
2019-03-18T11:17:40.912Z,75.10
2019-03-18T11:20:11.588Z,75.70
2019-03-18T11:22:41.859Z,74.45
2019-03-18T11:25:12.086Z,73.35
2019-03-18T11:27:42.229Z,72.11
2019-03-18T11:30:15.730Z,73.91
2019-03-18T11:32:45.896Z,74.24
2019-03-18T11:35:16.736Z,74.13
2019-03-18T11:37:48.518Z,72.94
2019-03-18T11:40:18.680Z,72.51
2019-03-18T11:42:52.045Z,71.57
2019-03-18T11:45:22.341Z,72.53
2019-03-18T11:47:54.791Z,71.69
2019-03-18T11:50:24.919Z,70.94
2019-03-18T11:52:55.165Z,69.71
2019-03-18T11:55:25.289Z,67.91
2019-03-18T11:57:55.502Z,67.77
2019-03-18T12:00:27.137Z,67.97
2019-03-18T12:02:57.242Z,67.18
2019-03-18T12:05:27.409Z,67.15
2019-03-18T12:07:57.608Z,68.05
2019-03-18T12:10:27.745Z,67.43
2019-03-18T12:12:58.042Z,67.85
2019-03-18T12:15:28.195Z,69.38
2019-03-18T12:17:58.290Z,68.39
2019-03-18T12:20:33.210Z,68.68
2019-03-18T12:23:03.553Z,69.21
2019-03-18T12:25:34.043Z,67.52
2019-03-18T12:28:05.453Z,66.04
2019-03-18T12:30:35.883Z,65.81
2019-03-18T12:33:06.058Z,64.71
2019-03-18T12:35:36.166Z,65.09
2019-03-18T12:38:07.060Z,63.93
2019-03-18T12:40:37.386Z,63.31
2019-03-18T12:43:07.533Z,62.98
2019-03-18T12:45:37.701Z,62.47
2019-03-18T12:48:09.828Z,61.18
2019-03-18T12:50:55.248Z,62.35
2019-03-18T12:53:12.165Z,60.39
2019-03-18T12:55:42.801Z,59.10
2019-03-18T12:58:12.961Z,60.26
2019-03-18T13:00:43.446Z,65.41
2019-03-18T13:03:16.868Z,69.47
2019-03-18T13:05:47.042Z,73.88
2019-03-18T13:08:17.234Z,76.37
2019-03-18T13:10:47.670Z,74.19
2019-03-18T13:13:17.800Z,76.33
2019-03-18T13:15:47.986Z,78.23
2019-03-18T13:18:18.074Z,76.89
2019-03-18T13:20:50.059Z,77.77
2019-03-18T13:23:20.526Z,76.27
2019-03-18T13:25:50.669Z,77.44
2019-03-18T13:28:20.777Z,75.16
2019-03-18T13:30:51.930Z,74.51
2019-03-18T13:33:22.097Z,73.84
2019-03-18T13:35:52.446Z,72.64
2019-03-18T13:38:22.582Z,72.75
2019-03-18T13:40:52.718Z,71.81
2019-03-18T13:43:24.237Z,71.64
2019-03-18T13:45:55.787Z,69.88
2019-03-18T13:48:26.729Z,70.24
2019-03-18T13:50:56.856Z,70.72
2019-03-18T13:53:29.126Z,70.73
2019-03-18T13:55:59.233Z,69.74
2019-03-18T13:58:29.470Z,69.57
2019-03-18T14:01:01.253Z,70.13
2019-03-18T14:03:31.448Z,69.19
2019-03-18T14:06:01.685Z,70.15
2019-03-18T14:08:31.814Z,69.08
2019-03-18T14:11:02.011Z,67.75
2019-03-18T14:13:32.102Z,68.56
2019-03-18T14:16:04.862Z,67.41
2019-03-18T14:18:34.969Z,66.91
2019-03-18T14:21:11.644Z,66.59
2019-03-18T14:23:41.770Z,66.28
2019-03-18T14:26:12.878Z,63.62
2019-03-18T14:28:44.209Z,60.45
2019-03-18T14:31:16.118Z,59.51
2019-03-18T14:33:48.942Z,59.49
2019-03-18T14:36:19.174Z,58.87
2019-03-18T14:38:49.268Z,60.01
2019-03-18T14:41:19.455Z,59.40
2019-03-18T14:43:49.685Z,58.87
2019-03-18T14:46:20.390Z,58.96
2019-03-18T14:48:50.415Z,56.46
2019-03-18T14:51:20.519Z,57.60
2019-03-18T14:53:51.016Z,58.88
2019-03-18T14:56:22.719Z,59.58
2019-03-18T14:58:53.761Z,60.34
2019-03-18T15:01:23.946Z,58.29
2019-03-18T15:03:54.028Z,65.61
2019-03-18T15:06:24.190Z,73.07
2019-03-18T15:08:54.285Z,76.47
2019-03-18T15:11:24.627Z,75.63
2019-03-18T15:13:54.793Z,76.47
2019-03-18T15:16:26.126Z,75.75
2019-03-18T15:18:56.249Z,75.39
2019-03-18T15:21:26.863Z,73.82
2019-03-18T15:23:57.021Z,73.17
2019-03-18T15:26:27.161Z,73.24
2019-03-18T15:28:57.284Z,73.41
2019-03-18T15:31:27.503Z,71.87
2019-03-18T15:33:57.662Z,72.03
2019-03-18T15:36:27.825Z,71.68
2019-03-18T15:38:57.947Z,69.39
2019-03-18T15:41:28.099Z,67.89
2019-03-18T15:43:58.285Z,68.23
2019-03-18T15:46:28.404Z,68.23
2019-03-18T15:48:58.553Z,68.40
2019-03-18T15:51:28.680Z,67.87
2019-03-18T15:53:58.829Z,68.24
2019-03-18T15:56:28.922Z,67.03
2019-03-18T15:58:59.095Z,67.96
2019-03-18T16:01:29.290Z,66.42
2019-03-18T16:03:59.451Z,66.35
2019-03-18T16:06:30.623Z,66.56
2019-03-18T16:09:05.775Z,67.19
2019-03-18T16:11:36.075Z,67.08
2019-03-18T16:14:06.196Z,66.13
2019-03-18T16:16:36.303Z,64.26
2019-03-18T16:19:06.525Z,64.25
2019-03-18T16:21:36.996Z,63.58
2019-03-18T16:24:07.293Z,62.70
2019-03-18T16:26:39.132Z,62.23
2019-03-18T16:29:09.320Z,61.89
2019-03-18T16:31:44.723Z,62.97
2019-03-18T16:34:15.011Z,61.67
2019-03-18T16:36:45.161Z,61.12
2019-03-18T16:39:15.372Z,61.03
2019-03-18T16:41:45.469Z,60.73
2019-03-18T16:44:15.684Z,60.06
2019-03-18T16:46:46.425Z,60.71
2019-03-18T16:49:16.655Z,60.34
2019-03-18T16:51:46.963Z,60.69
2019-03-18T16:54:19.862Z,61.17
2019-03-18T16:56:50.149Z,61.59
2019-03-18T16:59:20.385Z,61.98
2019-03-18T17:01:51.896Z,62.93
2019-03-18T17:04:22.114Z,63.50
2019-03-18T17:06:52.215Z,64.54
2019-03-18T17:09:25.682Z,64.81
2019-03-18T17:11:56.347Z,65.52
2019-03-18T17:14:26.487Z,66.43
2019-03-18T17:16:56.604Z,66.87
2019-03-18T17:19:28.198Z,67.41
2019-03-18T17:21:58.412Z,68.01
2019-03-18T17:24:33.441Z,67.92
2019-03-18T17:27:03.738Z,68.16
2019-03-18T17:29:33.925Z,68.32
2019-03-18T17:32:04.240Z,68.50
2019-03-18T17:34:34.486Z,68.50
2019-03-18T17:37:04.758Z,68.40
2019-03-18T17:39:38.549Z,68.73
2019-03-18T17:42:11.695Z,68.89
2019-03-18T17:44:42.066Z,69.15
2019-03-18T17:47:12.388Z,69.48
2019-03-18T17:49:46.794Z,70.01
2019-03-18T17:52:17.133Z,70.52
2019-03-18T17:54:50.953Z,70.53
2019-03-18T17:57:25.440Z,70.62
2019-03-18T17:59:56.416Z,70.78
2019-03-18T18:02:28.313Z,70.86
2019-03-18T18:05:03.165Z,71.15
2019-03-18T18:07:32.496Z,71.21
2019-03-18T18:10:04.321Z,71.42
2019-03-18T18:12:37.078Z,71.50
2019-03-18T18:15:10.443Z,71.38
2019-03-18T18:17:41.177Z,71.60
2019-03-18T18:20:11.836Z,71.21
2019-03-18T18:22:42.813Z,71.31
2019-03-18T18:25:15.091Z,70.41
2019-03-18T18:27:47.344Z,70.32
2019-03-18T18:30:21.555Z,70.07
2019-03-18T18:32:52.078Z,69.33
2019-03-18T18:35:23.356Z,69.40
2019-03-18T18:37:56.112Z,69.30
2019-03-18T18:40:29.535Z,69.73
2019-03-18T18:43:00.861Z,69.81
2019-03-18T18:45:34.665Z,69.72
2019-03-18T18:48:05.658Z,69.39
2019-03-18T18:50:36.740Z,69.50
2019-03-18T18:53:10.474Z,69.47
2019-03-18T18:55:41.634Z,69.51
2019-03-18T18:58:22.443Z,69.54
2019-03-18T19:01:01.511Z,69.45
2019-03-18T19:03:32.839Z,69.36
2019-03-18T19:06:05.972Z,69.49
2019-03-18T19:08:40.208Z,69.28
2019-03-18T19:11:25.820Z,68.96
2019-03-18T19:14:10.891Z,68.49
2019-03-18T19:16:42.862Z,68.39
2019-03-18T19:19:23.162Z,68.58
2019-03-18T19:22:12.476Z,68.20
2019-03-18T19:24:48.824Z,68.56
2019-03-18T19:27:26.710Z,68.55
2019-03-18T19:30:01.621Z,68.29
2019-03-18T19:32:34.705Z,67.86
2019-03-18T19:35:08.310Z,67.70
2019-03-18T19:37:41.184Z,67.63
2019-03-18T19:40:20.599Z,67.72
2019-03-18T19:42:53.794Z,67.97
2019-03-18T19:45:41.889Z,68.29
2019-03-18T19:51:17.927Z,68.61
2019-03-18T19:53:55.198Z,68.72
2019-03-18T19:56:30.440Z,68.60
2019-03-18T19:59:05.543Z,68.58
2019-03-18T20:01:40.823Z,68.61
2019-03-18T20:04:11.218Z,68.82
2019-03-18T20:06:44.256Z,68.94
2019-03-18T20:09:15.574Z,68.71
2019-03-18T20:11:47.216Z,68.64
2019-03-18T20:14:18.788Z,68.73
2019-03-18T20:16:50.546Z,68.66
2019-03-18T20:19:28.329Z,68.79
2019-03-18T20:22:03.096Z,68.57
2019-03-18T20:24:39.468Z,68.78
2019-03-18T20:27:17.709Z,68.89
2019-03-18T20:29:59.035Z,68.90
2019-03-18T20:32:44.554Z,69.53
2019-03-18T20:35:37.095Z,70.10
2019-03-18T20:38:26.620Z,70.79
2019-03-18T20:41:37.671Z,70.94
2019-03-18T20:44:16.110Z,71.28
2019-03-18T20:46:51.960Z,71.17
2019-03-18T20:49:22.642Z,71.02
2019-03-18T20:51:56.867Z,70.94
2019-03-18T20:54:28.619Z,70.98
2019-03-18T20:57:00.957Z,71.00
2019-03-18T20:59:31.683Z,71.19
2019-03-18T21:02:02.446Z,71.49
2019-03-18T21:04:34.462Z,71.76
2019-03-18T21:07:06.582Z,71.82
2019-03-18T21:09:36.983Z,72.07
2019-03-18T21:12:07.327Z,72.18
2019-03-18T21:14:40.561Z,72.40
2019-03-18T21:17:14.158Z,72.54
2019-03-18T21:19:44.673Z,73.05
2019-03-18T21:22:15.219Z,73.11
2019-03-18T21:24:45.542Z,73.14
2019-03-18T21:27:15.826Z,73.61
2019-03-18T21:29:46.049Z,73.51
2019-03-18T21:32:17.428Z,73.81
2019-03-18T21:34:49.739Z,73.71
2019-03-18T21:37:20.036Z,73.89
2019-03-18T21:39:50.347Z,73.74
2019-03-18T21:42:26.646Z,73.46
2019-03-18T21:45:00.371Z,73.94
2019-03-18T21:47:31.845Z,74.00
2019-03-18T21:50:06.753Z,73.82
2019-03-18T21:52:38.226Z,73.59
2019-03-18T21:55:08.579Z,73.22
2019-03-18T21:57:39.080Z,73.14
2019-03-18T22:00:31.211Z,73.02
2019-03-18T22:03:11.800Z,73.23
2019-03-18T22:05:45.101Z,72.97
2019-03-18T22:08:20.359Z,73.15
2019-03-18T22:10:55.829Z,73.08
2019-03-18T22:13:26.194Z,73.13
2019-03-18T22:15:56.408Z,73.35
2019-03-18T22:18:28.215Z,73.63
2019-03-18T22:20:59.767Z,73.86
2019-03-18T22:23:30.243Z,73.98
2019-03-18T22:26:00.622Z,74.09
2019-03-18T22:28:30.887Z,74.25
2019-03-18T22:31:01.405Z,74.24
2019-03-18T22:33:34.945Z,74.30
2019-03-18T22:36:05.241Z,74.10
2019-03-18T22:38:35.765Z,74.15
2019-03-18T22:41:05.934Z,74.07
2019-03-18T22:43:36.342Z,74.37
2019-03-18T22:46:06.906Z,74.54
2019-03-18T22:48:37.216Z,74.66
2019-03-18T22:51:07.375Z,75.09
2019-03-18T22:53:37.565Z,75.11
2019-03-18T22:56:09.319Z,75.13
2019-03-18T22:58:42.163Z,75.28
2019-03-18T23:01:15.946Z,75.18
2019-03-18T23:03:46.431Z,75.30
2019-03-18T23:06:18.236Z,75.41
2019-03-18T23:08:51.316Z,75.68
2019-03-18T23:11:21.528Z,75.71
2019-03-18T23:13:51.809Z,75.73
2019-03-18T23:16:25.072Z,75.94
2019-03-18T23:18:57.854Z,75.84
2019-03-18T23:21:28.125Z,76.11
2019-03-18T23:23:59.473Z,76.12
2019-03-18T23:26:31.358Z,76.08
2019-03-18T23:29:01.822Z,76.18
2019-03-18T23:31:32.074Z,76.31
2019-03-18T23:34:02.440Z,76.09
2019-03-18T23:36:32.642Z,76.20
2019-03-18T23:39:03.418Z,76.31
2019-03-18T23:41:33.816Z,76.44
2019-03-18T23:44:09.438Z,76.31
2019-03-18T23:46:42.144Z,76.34
2019-03-18T23:49:15.695Z,76.48
2019-03-18T23:51:45.853Z,76.54
2019-03-18T23:54:16.143Z,76.19
2019-03-18T23:56:46.406Z,75.85
2019-03-18T23:59:16.606Z,75.53
